• Join FlightAware (Why Join?)
  • Login
  • US Flag 
06:57PM EDT


 

Airport Tracker/Info


-or-


 

Live Flight TrackerFlight Track Log ✈ EJA583 ✈ 13-Nov-2013 ✈ KMLU - KRDU

Flight Track Log - Related Links

Times and Time Zones

All times are in EST time to prevent confusion due to time zone crossing. See the EJA583 flight status page for this flight to view local times or setup timezone preferences in your user account.

Time Position Orientation Groundspeed Altitude Reporting Facility
EST Latitude Longitude Course Direction KTS MPH feet Rate Location/Type
11:10AM 32.5444 -91.8058 70° East 282 325 7,700  Level Memphis Center
11:11AM 32.5383 -91.7147 95° East 281 323 11,000 2,100 Climbing Memphis Center
11:12AM 32.5342 -91.5861 92° East 313 360 12,100 1,560 Climbing Memphis Center
11:13AM 32.7985 -91.1235 69° East  Level Estimated
11:13AM 32.5289 -91.4744 93° East 334 384 14,300  Level Memphis Center
11:14AM 32.8391 -90.9924 70° East  Level Estimated
11:14AM 32.5233 -91.3636 93° East 338 389 17,000  Level Memphis Center
11:15AM 32.8795 -90.8613 70° East  Level Estimated
11:15AM 32.5183 -91.2525 93° East 340 391 19,000  Level Memphis Center
11:16AM 32.5139 -91.1386 93° East 345 397 21,700 2,640 Climbing Memphis Center
11:17AM 32.5067 -90.9944 93° East 362 417 24,600 2,460 Climbing Memphis Center
11:18AM 32.5000 -90.8694 94° East 375 432 26,800 1,980 Climbing Memphis Center
11:19AM 32.4942 -90.7400 93° East 390 449 28,800 1,740 Climbing Memphis Center
11:20AM 32.5003 -90.6044 87° East 409 471 30,500 1,500 Climbing Memphis Center
11:21AM 32.5300 -90.4658 76° East 434 499 31,900 1,440 Climbing Memphis Center
11:22AM 32.5672 -90.2922 76° East 450 518 33,500 1,500 Climbing Memphis Center
11:23AM 32.5989 -90.1436 76° East 464 534 35,000 1,440 Climbing Memphis Center
11:24AM 32.6308 -89.9939 76° East 471 542 36,500 1,380 Climbing Memphis Center
11:25AM 32.6619 -89.8442 76° East 474 545 37,900 1,200 Climbing Memphis Center
11:26AM 32.6992 -89.6606 76° East 483 556 39,000 480 Climbing Memphis Center
11:27AM 32.7328 -89.5006 76° East 500 575 39,000  Level Memphis Center
11:29AM 32.7681 -89.3331 76° East 519 597 39,000  Level Memphis Center
11:30AM 32.8028 -89.1644 76° East 529 609 39,000  Level Memphis Center
11:31AM 32.8392 -88.9961 76° East 531 611 39,000  Level Memphis Center
11:32AM 32.8794 -88.7956 76° East 525 604 39,000  Level Memphis Center
11:33AM 32.9119 -88.6275 77° East 524 603 39,000  Level Memphis Center
11:34AM 32.9450 -88.4586 77° East 527 606 39,000  Level Memphis Center
11:35AM 32.9786 -88.2900 77° East 528 608 39,000  Level Memphis Center
11:36AM 33.0167 -88.0942 77° East 528 608 39,000  Level Memphis Center
11:37AM 33.0494 -87.9239 77° East 529 609 39,000  Level Memphis Center
11:38AM 33.0814 -87.7539 77° East 529 609 39,000  Level Memphis Center
11:39AM 33.1133 -87.5825 77° East 530 610 39,000  Level Memphis Center
11:39AM 33.1325 -87.4794 77° East 526 605 39,000  Level Atlanta Center
11:40AM 33.1625 -87.3044 78° East 526 605 39,000  Level Atlanta Center
11:41AM 33.1939 -87.1344 78° East 526 605 39,000  Level Atlanta Center
11:42AM 33.2272 -86.9667 77° East 526 605 39,000  Level Atlanta Center
11:43AM 33.2542 -86.7961 79° East 526 605 39,000  Level Atlanta Center
11:44AM 33.2828 -86.6256 79° East 526 605 39,000  Level Atlanta Center
11:45AM 33.3114 -86.4550 79° East 526 605 39,000  Level Atlanta Center
11:46AM 33.3417 -86.2842 78° East 521 600 39,000  Level Atlanta Center
11:47AM 33.3761 -86.1011 77° East 521 600 39,000  Level Atlanta Center
11:48AM 33.3997 -85.9472 80° East 521 600 39,000  Level Atlanta Center
11:49AM 33.4250 -85.7761 80° East 521 600 39,000  Level Atlanta Center
11:50AM 33.4544 -85.6075 78° East 521 600 39,000  Level Atlanta Center
11:51AM 33.4794 -85.4361 80° East 521 600 39,000  Level Atlanta Center
11:52AM 33.5064 -85.2644 79° East 521 600 39,000  Level Atlanta Center
11:53AM 33.5308 -85.0981 80° East 516 594 39,000  Level Atlanta Center
11:54AM 33.5572 -84.9236 80° East 521 600 39,000  Level Atlanta Center
11:55AM 33.5814 -84.7544 80° East 521 600 39,000  Level Atlanta Center
11:56AM 33.6094 -84.5675 80° East 521 600 39,000  Level Atlanta Center
11:57AM 33.6308 -84.4106 81° East 521 600 39,000  Level Atlanta Center
11:58AM 33.6397 -84.2358 86° East 521 600 39,000  Level Atlanta Center
11:59AM 33.6419 -84.0561 89° East 521 600 39,000  Level Atlanta Center
12:00PM 33.6500 -83.8842 87° East 521 600 39,000  Level Atlanta Center
12:01PM 33.6561 -83.6944 88° East 521 600 39,000 -480 Level Atlanta Center
12:02PM 33.6617 -83.5197 88° East 515 593 38,100 -960 Descending Atlanta Center
12:03PM 33.6669 -83.3450 88° East 520 598 37,100 -1,080 Descending Atlanta Center
12:04PM 33.6722 -83.1700 88° East 525 604 36,000 -1,020 Descending Atlanta Center
12:05PM 33.6792 -82.9903 87° East 530 610 35,100 -720 Descending Atlanta Center
12:06PM 33.6839 -82.8156 88° East 530 610 34,600 -780 Descending Atlanta Center
12:07PM 33.6881 -82.6381 88° East 530 610 33,600 -840 Descending Atlanta Center
12:08PM 33.6944 -82.4658 87° East 524 603 33,000 -240 Descending Atlanta Center
12:10PM 33.7092 -82.1736 86° East 521 600 33,000  Level Jacksonville Center
12:11PM 33.7436 -82.0083 76° East 516 594 33,000  Level Jacksonville Center
12:12PM 33.8197 -81.8728 56° Northeast 484 557 33,000  Level Jacksonville Center
12:13PM 33.8917 -81.7367 57° Northeast 484 557 33,000  Level Jacksonville Center
12:14PM 33.9656 -81.6006 57° Northeast 484 557 33,000  Level Jacksonville Center
12:15PM 34.0411 -81.4642 56° Northeast 484 557 33,000 -300 Level Jacksonville Center
12:16PM 34.1125 -81.3275 58° Northeast 489 563 32,500 -840 Descending Jacksonville Center
12:17PM 34.1881 -81.1906 56° Northeast 489 563 31,400 -1,200 Descending Jacksonville Center
12:18PM 34.2672 -81.0433 57° Northeast 484 557 30,200 -1,080 Descending Jacksonville Center
12:19PM 34.3322 -80.9236 57° Northeast 479 551 29,300 -960 Descending Jacksonville Center
12:20PM 34.4011 -80.7914 58° Northeast 474 545 28,300 -1,140 Descending Jacksonville Center
12:21PM 34.4678 -80.6661 57° Northeast 458 527 27,100 -1,200 Descending Jacksonville Center
12:22PM 34.5364 -80.5358 57° Northeast 453 521 25,900 -1,200 Descending Jacksonville Center
12:24PM 34.6475 -80.3281 57° Northeast 464 534 24,100 -1,140 Descending Washington Center
12:25PM 34.7089 -80.2003 60° Northeast 449 517 23,000 -600 Descending Washington Center
12:26PM 34.7672 -80.0922 57° Northeast 430 495 23,000  Level Washington Center
12:27PM 34.8547 -79.9858 45° Northeast 418 481 23,000  Level Washington Center
12:28PM 34.9394 -79.8914 42° Northeast 411 473 23,000 -120 Level Washington Center
12:29PM 35.0242 -79.7997 42° Northeast 406 467 22,800 -1,200 Descending Washington Center
12:30PM 35.1067 -79.7075 42° Northeast 400 460 20,700 -2,160 Descending Washington Center
12:31PM 35.1847 -79.6250 41° Northeast 387 445 18,500 -1,980 Descending Washington Center
12:32PM 35.2642 -79.5553 36° Northeast 364 419 16,800 -1,920 Descending Washington Center
12:32PM 35.2706 -79.5506 31° Northeast 334 384 16,400 -1,800 Descending Washington Center
12:33PM 35.3411 -79.5031 29° Northeast 320 368 15,000 -1,680 Descending Washington Center
12:33PM 35.3431 -79.5031 360° North 295 339 14,900 -1,500 Descending Washington Center
12:34PM 35.4092 -79.4606 28° Northeast 271 312 13,500 -1,500 Descending Washington Center
12:35PM 35.4714 -79.4100 33° Northeast 273 314 12,000 -1,500 Descending Washington Center
12:36PM 35.5353 -79.3669 29° Northeast 263 303 10,600 -1,500 Descending Washington Center
12:36PM 35.5417 -79.3622 31° Northeast 261 300 10,300 -1,440 Descending Washington Center
12:37PM 35.5908 -79.3264 31° Northeast 256 295 9,200 -1,560 Descending Washington Center
12:37PM 35.6100 -79.3144 27° Northeast 244 281 8,600 -1,620 Descending Washington Center
12:38PM 35.6508 -79.2703 41° Northeast 256 295 7,600 -1,500 Descending Washington Center
12:39PM 35.6739 -79.2022 67° East 261 300 6,200 -1,500 Descending Washington Center
12:39PM 35.6761 -79.1972 61° Northeast 245 282 6,200 -240 Level Washington Center
12:40PM 35.7031 -79.1319 63° Northeast 222 255 6,000 -240 Descending Washington Center
12:40PM 35.7056 -79.1219 73° East 234 269 6,000 -1,380 Level Washington Center
12:41PM 35.7283 -79.0564 67° East 215 247 4,500 -1,560 Descending Washington Center
12:42PM 35.7553 -78.9883 64° Northeast 215 247 3,000 -1,620 Descending Washington Center
12:42PM 35.7553 -78.9858 90° East 220 253 2,900 -960 Descending Washington Center
12:43PM 35.7781 -78.9203 67° East 218 251 2,000 -480 Descending Washington Center
12:44PM 35.8044 -78.8728 56° Northeast 158 182 2,000 -300 Level Washington Center
12:45PM 35.8306 -78.8353 49° Northeast 126 145 1,400 -720 Descending Washington Center
12:46PM 35.8583 -78.8083 38° Northeast 113 130 600 -720 Descending Washington Center
12:48PM 35.8667 -78.7833 51° Northeast  Level FlightAware Approximate